KBNW/BNW METAR and TAF weather

Enter ICAO airport designator
Station Type Date Time Source
KBNW METAR 2022/01/28 04:55 UTC NOAA

KBNW 280455Z AUTO 33014KT 10SM CLR M14/M16 A3041 RMK AO2


Station Type Date Time Source
KBNW Decoded METAR 2022/01/28 04:55 UTC NOAA

Boone Municipal, IA, United States (KBNW) 42-03N 093-51W
Jan 27, 2022 - 11:55 PM EST / 2022.01.28 0455 UTC
Wind: from the NNW (330 degrees) at 16 MPH (14 KT):0
Visibility: 10 mile(s):0
Sky conditions: clear
Temperature: 6 F (-14 C)
Windchill: -13 F (-25 C):2
Dew Point: 3 F (-16 C)
Relative Humidity: 84%
Pressure (altimeter): 30.41 in. Hg (1029 hPa)
ob: KBNW 280455Z AUTO 33014KT 10SM CLR M14/M16 A3041 RMK AO2
cycle: 5

Station Type Date Time Source
KBNW TAF UTC NOAA

Error!

Example: see airport list